createdAt,value
2018-11-07T00:01:03.955Z,28.57
2018-11-07T00:03:32.472Z,28.70
2018-11-07T00:06:02.764Z,28.17
2018-11-07T00:08:31.482Z,29.43
2018-11-07T00:11:00.208Z,28.77
2018-11-07T00:13:28.797Z,26.50
2018-11-07T00:15:57.413Z,29.10
2018-11-07T00:18:25.951Z,25.10
2018-11-07T00:20:54.494Z,25.60
2018-11-07T00:23:23.143Z,27.43
2018-11-07T00:25:51.956Z,26.20
2018-11-07T00:28:20.467Z,26.17
2018-11-07T00:30:49.026Z,28.60
2018-11-07T00:33:18.098Z,30.07
2018-11-07T00:35:46.595Z,24.47
2018-11-07T00:38:15.189Z,27.67
2018-11-07T00:40:44.134Z,23.77
2018-11-07T00:43:12.652Z,25.90
2018-11-07T00:45:41.242Z,23.80
2018-11-07T00:48:09.888Z,24.47
2018-11-07T00:50:38.404Z,28.30
2018-11-07T00:53:07.999Z,25.80
2018-11-07T00:55:36.625Z,25.40
2018-11-07T00:58:05.888Z,25.03
2018-11-07T01:00:34.538Z,25.50
2018-11-07T01:03:05.451Z,26.37
2018-11-07T01:05:34.045Z,24.97
2018-11-07T01:08:03.663Z,22.77
2018-11-07T01:10:32.219Z,23.47
2018-11-07T01:13:00.760Z,27.30
2018-11-07T01:15:29.318Z,27.67
2018-11-07T01:17:58.207Z,23.87
2018-11-07T01:20:33.151Z,25.67
2018-11-07T01:23:02.815Z,28.20
2018-11-07T01:25:31.364Z,26.87
2018-11-07T01:28:00.020Z,29.27
2018-11-07T01:30:28.645Z,27.00
2018-11-07T01:32:57.198Z,25.50
2018-11-07T01:35:26.536Z,24.33
2018-11-07T01:37:55.084Z,21.57
2018-11-07T01:40:23.623Z,24.13
2018-11-07T01:42:52.293Z,25.03
2018-11-07T01:45:20.822Z,24.80
2018-11-07T01:47:49.399Z,22.23
2018-11-07T01:50:18.034Z,22.00
2018-11-07T01:52:46.658Z,22.63
2018-11-07T01:55:15.196Z,23.63
2018-11-07T01:57:43.704Z,24.07
2018-11-07T02:00:13.035Z,21.87
2018-11-07T02:02:43.028Z,23.30
2018-11-07T02:05:11.780Z,22.07
2018-11-07T02:07:40.789Z,22.60
2018-11-07T02:10:11.552Z,18.07
2018-11-07T02:12:40.715Z,21.37
2018-11-07T02:15:10.525Z,20.37
2018-11-07T02:17:39.254Z,22.77
2018-11-07T02:20:10.873Z,18.33
2018-11-07T02:22:39.720Z,18.57
2018-11-07T02:25:08.678Z,21.40
2018-11-07T02:27:37.850Z,16.90
2018-11-07T02:30:11.200Z,18.07
2018-11-07T02:32:39.708Z,18.40
2018-11-07T02:35:08.703Z,21.40
2018-11-07T02:37:37.429Z,20.70
2018-11-07T02:40:06.652Z,20.07
2018-11-07T02:42:35.171Z,19.87
2018-11-07T02:45:05.547Z,19.20
2018-11-07T02:47:34.217Z,17.43
2018-11-07T02:50:05.303Z,17.50
2018-11-07T02:52:33.802Z,19.77
2018-11-07T02:55:04.474Z,19.23
2018-11-07T02:57:39.340Z,18.47
2018-11-07T03:00:10.203Z,18.50
2018-11-07T03:02:38.895Z,19.70
2018-11-07T03:05:07.658Z,19.53
2018-11-07T03:07:36.742Z,17.90
2018-11-07T03:10:07.530Z,17.67
2018-11-07T03:12:36.058Z,18.00
2018-11-07T03:15:05.500Z,18.37
2018-11-07T03:17:34.048Z,18.13
2018-11-07T03:20:04.105Z,16.53
2018-11-07T03:22:32.614Z,18.07
2018-11-07T03:25:02.355Z,16.13
2018-11-07T03:27:30.898Z,17.50
2018-11-07T03:29:59.412Z,19.80
2018-11-07T03:32:28.172Z,20.73
2018-11-07T03:34:57.055Z,17.93
2018-11-07T03:37:25.573Z,16.40
2018-11-07T03:39:54.109Z,15.83
2018-11-07T03:42:22.891Z,19.07
2018-11-07T03:44:51.408Z,19.77
2018-11-07T03:47:19.913Z,18.60
2018-11-07T03:49:48.483Z,22.10
2018-11-07T03:52:17.135Z,18.97
2018-11-07T03:54:45.849Z,20.23
2018-11-07T03:57:14.403Z,18.37
2018-11-07T03:59:43.004Z,18.37
2018-11-07T04:02:11.558Z,20.40
2018-11-07T04:04:40.357Z,18.00
2018-11-07T04:07:08.985Z,18.30
2018-11-07T04:09:37.493Z,16.77
2018-11-07T04:12:06.048Z,15.70
2018-11-07T04:14:34.612Z,17.87
2018-11-07T04:17:05.288Z,18.97
2018-11-07T04:19:33.783Z,17.87
2018-11-07T04:22:03.685Z,19.73
2018-11-07T04:24:32.461Z,22.57
2018-11-07T04:27:03.125Z,17.40
2018-11-07T04:29:31.686Z,21.13
2018-11-07T04:32:00.285Z,20.43
2018-11-07T04:34:28.808Z,21.47
2018-11-07T04:36:57.743Z,21.77
2018-11-07T04:39:28.497Z,20.33
2018-11-07T04:41:57.057Z,21.53
2018-11-07T04:44:25.734Z,24.80
2018-11-07T04:46:54.436Z,21.23
2018-11-07T04:49:22.950Z,22.07
2018-11-07T04:51:51.534Z,18.57
2018-11-07T04:54:20.120Z,19.10
2018-11-07T04:56:48.733Z,20.67
2018-11-07T04:59:17.317Z,22.60
2018-11-07T05:01:45.819Z,22.50
2018-11-07T05:04:14.684Z,22.93
2018-11-07T05:06:43.391Z,21.20
2018-11-07T05:09:11.943Z,25.00
2018-11-07T05:11:40.454Z,23.40
2018-11-07T05:14:09.215Z,25.50
2018-11-07T05:16:37.749Z,23.33
2018-11-07T05:19:07.991Z,24.80
2018-11-07T05:21:36.634Z,23.63
2018-11-07T05:24:07.010Z,23.30
2018-11-07T05:26:35.543Z,23.40
2018-11-07T05:29:08.204Z,20.33
2018-11-07T05:31:36.691Z,23.47
2018-11-07T05:34:05.438Z,23.67
2018-11-07T05:36:33.947Z,21.13
2018-11-07T05:39:06.013Z,24.13
2018-11-07T05:41:34.596Z,25.13
2018-11-07T05:44:05.151Z,23.63
2018-11-07T05:46:33.681Z,20.40
2018-11-07T05:49:04.061Z,21.30
2018-11-07T05:51:32.747Z,20.57
2018-11-07T05:54:03.186Z,20.03
2018-11-07T05:56:31.695Z,22.67
2018-11-07T05:59:00.322Z,21.40
2018-11-07T06:01:28.852Z,18.07
2018-11-07T06:03:57.423Z,19.60
2018-11-07T06:06:26.123Z,23.07
2018-11-07T06:08:54.759Z,23.03
2018-11-07T06:11:23.453Z,21.70
2018-11-07T06:13:52.041Z,21.70
2018-11-07T06:16:21.161Z,22.43
2018-11-07T06:18:49.781Z,24.33
2018-11-07T06:21:18.315Z,22.20
2018-11-07T06:23:46.986Z,20.17
2018-11-07T06:26:15.883Z,23.63
2018-11-07T06:28:44.400Z,22.67
2018-11-07T06:31:12.903Z,25.53
2018-11-07T06:33:41.577Z,22.57
2018-11-07T06:36:10.168Z,24.07
2018-11-07T06:38:40.445Z,24.43
2018-11-07T06:41:09.023Z,29.53
2018-11-07T06:43:37.660Z,22.67
2018-11-07T06:46:06.627Z,25.07
2018-11-07T06:48:35.132Z,25.67
2018-11-07T06:51:05.363Z,24.17
2018-11-07T06:53:33.903Z,22.87
2018-11-07T06:56:03.864Z,23.33
2018-11-07T06:58:32.468Z,27.73
2018-11-07T07:01:05.470Z,26.20
2018-11-07T07:03:34.261Z,23.07
2018-11-07T07:06:04.458Z,24.73
2018-11-07T07:08:33.010Z,21.47
2018-11-07T07:11:06.284Z,21.70
2018-11-07T07:13:35.408Z,21.93
2018-11-07T07:16:05.526Z,22.77
2018-11-07T07:18:34.111Z,22.37
2018-11-07T07:21:04.153Z,22.40
2018-11-07T07:23:32.664Z,26.23
2018-11-07T07:26:03.276Z,23.87
2018-11-07T07:28:31.825Z,25.47
2018-11-07T07:31:00.415Z,20.90
2018-11-07T07:33:29.192Z,25.97
2018-11-07T07:35:57.829Z,23.80
2018-11-07T07:38:26.442Z,21.93
2018-11-07T07:40:55.277Z,21.53
2018-11-07T07:43:23.911Z,20.00
2018-11-07T07:45:52.607Z,22.03
2018-11-07T07:48:21.243Z,19.93
2018-11-07T07:50:49.865Z,18.70
2018-11-07T07:53:18.704Z,17.93
2018-11-07T07:55:47.334Z,17.70
2018-11-07T07:58:15.840Z,18.67
2018-11-07T08:00:44.710Z,15.73
2018-11-07T08:03:13.283Z,15.27
2018-11-07T08:05:41.901Z,15.43
2018-11-07T08:08:10.479Z,14.13
2018-11-07T08:10:39.057Z,12.57
2018-11-07T08:13:07.604Z,12.10
2018-11-07T08:15:36.136Z,14.83
2018-11-07T08:18:09.350Z,11.27
2018-11-07T08:20:37.984Z,10.20
2018-11-07T08:23:06.777Z,9.50
2018-11-07T08:25:35.749Z,11.63
2018-11-07T08:28:05.396Z,11.97
2018-11-07T08:30:34.385Z,10.63
2018-11-07T08:33:05.197Z,9.70
2018-11-07T08:35:34.987Z,13.80
2018-11-07T08:38:05.449Z,10.10
2018-11-07T08:40:34.279Z,8.33
2018-11-07T08:43:05.223Z,8.40
2018-11-07T08:45:33.816Z,9.07
2018-11-07T08:48:03.730Z,8.83
2018-11-07T08:50:32.216Z,9.03
2018-11-07T08:53:00.765Z,7.37
2018-11-07T08:55:29.338Z,9.20
2018-11-07T08:57:57.983Z,8.53
2018-11-07T09:00:26.522Z,7.73
2018-11-07T09:02:56.074Z,8.83
2018-11-07T09:05:24.676Z,6.97
2018-11-07T09:07:53.200Z,8.30
2018-11-07T09:10:23.254Z,9.37
2018-11-07T09:12:51.778Z,9.10
2018-11-07T09:15:21.544Z,8.20
2018-11-07T09:17:50.085Z,8.50
2018-11-07T09:20:20.616Z,10.13
2018-11-07T09:22:49.237Z,8.03
2018-11-07T09:25:17.951Z,7.10
2018-11-07T09:27:47.070Z,9.20
2018-11-07T09:30:17.043Z,8.40
2018-11-07T09:32:45.619Z,9.67
2018-11-07T09:35:14.555Z,9.00
2018-11-07T09:37:43.299Z,7.83
2018-11-07T09:40:17.172Z,8.30
2018-11-07T09:42:46.479Z,8.53
2018-11-07T09:45:16.517Z,9.03
2018-11-07T09:47:45.680Z,5.77
2018-11-07T09:50:15.277Z,5.23
2018-11-07T09:52:44.778Z,7.53
2018-11-07T09:55:14.973Z,5.87
2018-11-07T09:57:43.771Z,5.47
2018-11-07T10:00:14.208Z,5.83
2018-11-07T10:02:43.481Z,5.83
2018-11-07T10:05:12.601Z,7.23
2018-11-07T10:07:41.809Z,6.97
2018-11-07T10:10:13.685Z,9.00
2018-11-07T10:12:43.221Z,6.67
2018-11-07T10:15:12.337Z,6.10
2018-11-07T10:17:40.880Z,6.27
2018-11-07T10:20:12.829Z,5.57
2018-11-07T10:22:41.951Z,6.07
2018-11-07T10:25:11.269Z,6.53
2018-11-07T10:27:39.981Z,6.03
2018-11-07T10:30:10.681Z,6.33
2018-11-07T10:32:39.728Z,4.73
2018-11-07T10:35:08.590Z,9.97
2018-11-07T10:37:37.310Z,5.13
2018-11-07T10:40:09.021Z,4.87
2018-11-07T10:42:37.670Z,6.13
2018-11-07T10:45:06.850Z,6.27
2018-11-07T10:47:35.389Z,5.23
2018-11-07T10:50:08.898Z,4.33
2018-11-07T10:52:37.878Z,6.77
2018-11-07T10:55:07.109Z,5.67
2018-11-07T10:57:35.760Z,5.07
2018-11-07T11:00:06.994Z,5.73
2018-11-07T11:02:41.062Z,5.07
2018-11-07T11:05:09.826Z,6.87
2018-11-07T11:07:38.441Z,3.40
2018-11-07T11:10:07.192Z,7.90
2018-11-07T11:12:35.807Z,4.77
2018-11-07T11:15:07.799Z,5.17
2018-11-07T11:17:36.401Z,3.27
2018-11-07T11:20:06.859Z,4.80
2018-11-07T11:22:35.400Z,7.40
2018-11-07T11:25:06.145Z,3.67
2018-11-07T11:27:34.753Z,4.53
2018-11-07T11:30:05.172Z,4.73
2018-11-07T11:32:33.682Z,4.00
2018-11-07T11:35:03.959Z,4.27
2018-11-07T11:37:32.425Z,4.27
2018-11-07T11:40:00.950Z,6.37
2018-11-07T11:42:29.916Z,3.50
2018-11-07T11:44:58.551Z,3.77
2018-11-07T11:47:27.056Z,3.73
2018-11-07T11:49:55.658Z,5.27
2018-11-07T11:52:24.423Z,8.13
2018-11-07T11:54:53.004Z,5.60
2018-11-07T11:57:21.836Z,4.50
2018-11-07T11:59:50.625Z,3.93
2018-11-07T12:02:19.031Z,4.17
2018-11-07T12:04:47.495Z,5.53
2018-11-07T12:07:16.138Z,3.33
2018-11-07T12:09:44.643Z,4.00
2018-11-07T12:12:13.191Z,3.60
2018-11-07T12:14:41.740Z,5.80
2018-11-07T12:17:10.356Z,5.07
2018-11-07T12:19:39.005Z,7.53
2018-11-07T12:22:07.648Z,5.00
2018-11-07T12:24:37.492Z,7.83
2018-11-07T12:27:06.092Z,4.70
2018-11-07T12:29:34.627Z,3.80
2018-11-07T12:32:05.126Z,4.33
2018-11-07T12:34:33.665Z,6.63
2018-11-07T12:37:04.470Z,7.77
2018-11-07T12:39:33.025Z,4.50
2018-11-07T12:42:06.465Z,3.97
2018-11-07T12:44:35.510Z,4.60
2018-11-07T12:47:07.691Z,4.13
2018-11-07T12:49:36.281Z,2.87
2018-11-07T12:52:05.684Z,4.60
2018-11-07T12:54:34.240Z,4.23
2018-11-07T12:57:04.626Z,4.60
2018-11-07T12:59:33.276Z,4.50
2018-11-07T13:02:03.104Z,4.37
2018-11-07T13:04:31.718Z,5.47
2018-11-07T13:07:00.294Z,3.73
2018-11-07T13:09:28.895Z,2.40
2018-11-07T13:11:57.482Z,4.37
2018-11-07T13:14:26.125Z,4.00
2018-11-07T13:16:54.698Z,4.10
2018-11-07T13:19:23.333Z,3.40
2018-11-07T13:21:52.041Z,5.27
2018-11-07T13:24:20.582Z,5.40
2018-11-07T13:26:49.254Z,2.60
2018-11-07T13:29:17.842Z,3.33
2018-11-07T13:31:46.723Z,5.43
2018-11-07T13:34:15.395Z,4.47
2018-11-07T13:36:44.305Z,3.23
2018-11-07T13:39:14.089Z,5.67
2018-11-07T13:41:42.596Z,4.43
2018-11-07T13:44:11.248Z,5.70
2018-11-07T13:46:40.473Z,3.63
2018-11-07T13:49:09.117Z,4.70
2018-11-07T13:51:37.713Z,4.13
2018-11-07T13:54:07.102Z,5.33
2018-11-07T13:56:35.696Z,4.30
2018-11-07T13:59:06.602Z,3.63
2018-11-07T14:01:35.543Z,5.87
2018-11-07T14:04:06.030Z,5.63
2018-11-07T14:06:34.646Z,2.47
2018-11-07T14:09:06.782Z,3.43
2018-11-07T14:11:35.308Z,3.53
2018-11-07T14:14:06.082Z,4.57
2018-11-07T14:16:35.019Z,4.97
2018-11-07T14:19:06.559Z,2.30
2018-11-07T14:21:35.175Z,3.73
2018-11-07T14:24:07.309Z,4.40
2018-11-07T14:26:35.849Z,5.07
2018-11-07T14:29:05.816Z,3.17
2018-11-07T14:31:35.585Z,3.73
2018-11-07T14:34:05.621Z,3.93
2018-11-07T14:36:35.058Z,3.83
2018-11-07T14:39:07.277Z,3.50
2018-11-07T14:41:36.181Z,5.37
2018-11-07T14:44:05.258Z,7.10
2018-11-07T14:46:33.924Z,5.63
2018-11-07T14:49:05.137Z,4.67
2018-11-07T14:51:33.662Z,4.87
2018-11-07T14:54:03.773Z,4.67
2018-11-07T14:56:32.297Z,5.70
2018-11-07T14:59:00.986Z,3.63
2018-11-07T15:01:30.085Z,3.47
2018-11-07T15:03:58.649Z,8.20
2018-11-07T15:06:27.202Z,5.03
2018-11-07T15:08:55.799Z,6.30
2018-11-07T15:11:24.269Z,4.17
2018-11-07T15:13:52.774Z,5.20
2018-11-07T15:16:21.343Z,4.13
2018-11-07T15:18:49.886Z,3.80
2018-11-07T15:21:18.418Z,5.00
2018-11-07T15:23:47.005Z,4.67
2018-11-07T15:26:15.757Z,6.60
2018-11-07T15:28:44.364Z,9.13
2018-11-07T15:31:12.968Z,4.60
2018-11-07T15:33:41.511Z,5.40
2018-11-07T15:36:10.123Z,6.07
2018-11-07T15:38:38.581Z,4.93
2018-11-07T15:41:07.125Z,4.37
2018-11-07T15:43:35.727Z,4.10
2018-11-07T15:46:05.428Z,4.60
2018-11-07T15:48:34.008Z,2.90
2018-11-07T15:51:08.923Z,3.30
2018-11-07T15:53:37.454Z,5.50
2018-11-07T15:56:06.312Z,5.63
2018-11-07T15:58:35.098Z,4.07
2018-11-07T16:01:06.700Z,3.80
2018-11-07T16:03:42.124Z,6.57
2018-11-07T16:06:10.769Z,4.17
2018-11-07T16:08:39.274Z,3.43
2018-11-07T16:11:07.854Z,3.30
2018-11-07T16:13:37.517Z,3.77
2018-11-07T16:16:06.615Z,4.30
2018-11-07T16:18:35.240Z,3.23
2018-11-07T16:21:06.757Z,4.10
2018-11-07T16:23:35.358Z,6.63
2018-11-07T16:26:05.645Z,5.33
2018-11-07T16:28:34.510Z,6.10
2018-11-07T16:31:04.427Z,2.40
2018-11-07T16:33:33.045Z,5.13
2018-11-07T16:36:02.890Z,5.50
2018-11-07T16:38:31.458Z,3.97
2018-11-07T16:41:00.134Z,5.20
2018-11-07T16:43:28.642Z,5.67
2018-11-07T16:45:57.197Z,5.60
2018-11-07T16:48:25.821Z,4.07
2018-11-07T16:50:54.372Z,6.87
2018-11-07T16:53:23.062Z,4.53
2018-11-07T16:55:51.643Z,7.07
2018-11-07T16:58:20.200Z,6.87
2018-11-07T17:00:48.761Z,3.13
2018-11-07T17:03:17.444Z,3.83
2018-11-07T17:05:46.059Z,4.20
2018-11-07T17:08:15.017Z,5.63
2018-11-07T17:10:43.572Z,10.90
2018-11-07T17:13:12.112Z,8.80
2018-11-07T17:15:41.352Z,4.43
2018-11-07T17:18:09.915Z,4.13
2018-11-07T17:20:38.476Z,5.03
2018-11-07T17:23:06.994Z,8.13
2018-11-07T17:25:36.977Z,5.87
2018-11-07T17:28:06.594Z,5.10
2018-11-07T17:30:35.141Z,4.43
2018-11-07T17:33:07.105Z,6.10
2018-11-07T17:35:35.725Z,5.93
2018-11-07T17:38:06.147Z,5.63
2018-11-07T17:40:34.836Z,8.73
2018-11-07T17:43:10.104Z,5.70
2018-11-07T17:45:39.041Z,6.70
2018-11-07T17:48:07.696Z,5.10
2018-11-07T17:50:36.325Z,6.97
2018-11-07T17:53:07.637Z,6.10
2018-11-07T17:55:36.447Z,4.97
2018-11-07T17:58:05.747Z,7.47
2018-11-07T18:00:35.027Z,5.20
2018-11-07T18:03:06.275Z,5.10
2018-11-07T18:05:35.645Z,5.97
2018-11-07T18:08:05.807Z,3.60
2018-11-07T18:10:34.627Z,4.00
2018-11-07T18:13:07.030Z,4.07
2018-11-07T18:15:35.657Z,5.93
2018-11-07T18:18:06.176Z,4.83
2018-11-07T18:20:35.094Z,4.20
2018-11-07T18:23:06.989Z,4.57
2018-11-07T18:25:35.667Z,6.23
2018-11-07T18:28:06.208Z,6.00
2018-11-07T18:30:34.835Z,4.20
2018-11-07T18:33:07.917Z,5.60
2018-11-07T18:35:36.584Z,6.43
2018-11-07T18:38:05.725Z,3.17
2018-11-07T18:40:34.678Z,5.40
2018-11-07T18:43:05.270Z,3.80
2018-11-07T18:45:33.784Z,4.67
2018-11-07T18:48:04.465Z,4.67
2018-11-07T18:50:33.740Z,4.03
2018-11-07T18:53:04.265Z,3.27
2018-11-07T18:55:32.859Z,5.10
2018-11-07T18:58:02.815Z,3.83
2018-11-07T19:00:32.512Z,10.03
2018-11-07T19:03:03.657Z,6.07
2018-11-07T19:05:33.034Z,4.63
2018-11-07T19:08:02.867Z,5.90
2018-11-07T19:10:31.450Z,4.53
2018-11-07T19:13:00.070Z,5.13
2018-11-07T19:15:29.523Z,3.63
2018-11-07T19:17:58.304Z,5.57
2018-11-07T19:20:27.471Z,5.30
2018-11-07T19:22:56.007Z,5.07
2018-11-07T19:25:24.668Z,7.37
2018-11-07T19:27:53.646Z,5.00
2018-11-07T19:30:23.447Z,3.53
2018-11-07T19:32:53.756Z,6.43
2018-11-07T19:35:23.174Z,5.67
2018-11-07T19:37:52.705Z,8.03
2018-11-07T19:40:24.135Z,5.23
2018-11-07T19:42:56.971Z,6.80
2018-11-07T19:45:25.786Z,4.03
2018-11-07T19:47:55.461Z,3.83
2018-11-07T19:50:24.704Z,6.23
2018-11-07T19:52:53.719Z,4.60
2018-11-07T19:55:24.040Z,4.20
2018-11-07T19:57:57.602Z,5.20
2018-11-07T20:00:27.413Z,5.17
2018-11-07T20:02:56.525Z,5.03
2018-11-07T20:05:25.361Z,6.00
2018-11-07T20:07:54.385Z,3.00
2018-11-07T20:10:23.698Z,5.40
2018-11-07T20:12:52.396Z,4.03
2018-11-07T20:15:22.639Z,4.30
2018-11-07T20:17:51.951Z,4.10
2018-11-07T20:20:20.637Z,4.20
2018-11-07T20:22:49.369Z,6.27
2018-11-07T20:25:19.385Z,3.73
2018-11-07T20:27:49.204Z,4.37
2018-11-07T20:30:19.362Z,3.47
2018-11-07T20:32:48.110Z,6.07
2018-11-07T20:35:18.115Z,2.90
2018-11-07T20:37:47.971Z,5.27
2018-11-07T20:40:20.022Z,3.63
2018-11-07T20:42:48.754Z,4.37
2018-11-07T20:45:18.420Z,4.93
2018-11-07T20:47:47.558Z,5.67
2018-11-07T20:50:18.060Z,4.77
2018-11-07T20:52:47.149Z,5.27
2018-11-07T20:55:16.884Z,4.00
2018-11-07T20:57:47.069Z,4.93
2018-11-07T21:00:18.095Z,7.53
2018-11-07T21:02:47.389Z,4.87
2018-11-07T21:05:16.355Z,3.60
2018-11-07T21:07:45.160Z,4.50
2018-11-07T21:10:16.724Z,4.33
2018-11-07T21:12:45.841Z,6.63
2018-11-07T21:15:15.562Z,3.90
2018-11-07T21:17:44.757Z,4.60
2018-11-07T21:20:13.353Z,5.27
2018-11-07T21:22:42.529Z,4.90
2018-11-07T21:25:11.671Z,3.70
2018-11-07T21:27:40.941Z,4.00
2018-11-07T21:30:11.762Z,3.90
2018-11-07T21:32:42.085Z,2.93
2018-11-07T21:35:10.850Z,4.33
2018-11-07T21:37:39.437Z,4.07
2018-11-07T21:40:10.674Z,2.60
2018-11-07T21:42:39.581Z,5.03
2018-11-07T21:45:09.876Z,4.20
2018-11-07T21:47:38.926Z,3.83
2018-11-07T21:50:08.810Z,2.27
2018-11-07T21:52:37.717Z,5.73
2018-11-07T21:55:06.577Z,3.17
2018-11-07T21:57:35.415Z,2.83
2018-11-07T22:00:08.935Z,4.90
2018-11-07T22:02:37.549Z,7.83
2018-11-07T22:05:06.831Z,5.80
2018-11-07T22:07:35.367Z,5.17
2018-11-07T22:10:06.261Z,3.47
2018-11-07T22:12:34.783Z,5.13
2018-11-07T22:15:05.245Z,6.73
2018-11-07T22:17:33.753Z,3.60
2018-11-07T22:20:03.555Z,5.10
2018-11-07T22:22:32.159Z,3.33
2018-11-07T22:25:02.771Z,4.97
2018-11-07T22:27:32.145Z,4.63
2018-11-07T22:30:00.717Z,6.13
2018-11-07T22:32:29.268Z,4.83
2018-11-07T22:34:58.024Z,5.07
2018-11-07T22:37:26.577Z,3.43
2018-11-07T22:39:55.168Z,5.03
2018-11-07T22:42:23.682Z,5.63
2018-11-07T22:44:52.238Z,5.13
2018-11-07T22:47:20.905Z,3.53
2018-11-07T22:49:49.658Z,3.70
2018-11-07T22:52:19.881Z,5.67
2018-11-07T22:54:48.482Z,4.30
2018-11-07T22:57:17.106Z,4.30
2018-11-07T22:59:46.040Z,5.00
2018-11-07T23:02:14.561Z,9.87
2018-11-07T23:04:43.049Z,3.63
2018-11-07T23:07:11.605Z,9.17
2018-11-07T23:09:40.462Z,4.73
2018-11-07T23:12:09.108Z,4.60
2018-11-07T23:14:39.419Z,3.47
2018-11-07T23:17:08.148Z,5.10
2018-11-07T23:19:36.685Z,6.23
2018-11-07T23:22:06.151Z,8.13
2018-11-07T23:24:34.799Z,5.80
2018-11-07T23:27:04.568Z,4.00
2018-11-07T23:29:33.078Z,3.93
2018-11-07T23:32:03.350Z,3.57
2018-11-07T23:34:31.990Z,5.03
2018-11-07T23:37:00.814Z,5.30
2018-11-07T23:39:29.502Z,4.43
2018-11-07T23:41:58.003Z,3.47
2018-11-07T23:44:26.604Z,3.80
2018-11-07T23:46:55.181Z,3.23
2018-11-07T23:49:23.813Z,4.40
2018-11-07T23:51:52.722Z,3.93
2018-11-07T23:54:22.292Z,4.90
2018-11-07T23:56:51.516Z,5.30
2018-11-07T23:59:20.347Z,4.70
